createdAt,value
2018-06-05T00:00:20.931Z,94446.42
2018-06-05T00:02:47.483Z,94441.30
2018-06-05T00:05:13.995Z,94448.41
2018-06-05T00:07:40.304Z,94445.58
2018-06-05T00:10:06.805Z,94436.19
2018-06-05T00:12:33.163Z,94434.65
2018-06-05T00:14:59.503Z,94431.31
2018-06-05T00:17:25.876Z,94431.03
2018-06-05T00:19:52.247Z,94434.91
2018-06-05T00:22:18.601Z,94433.30
2018-06-05T00:24:45.036Z,94438.47
2018-06-05T00:27:11.402Z,94434.72
2018-06-05T00:29:37.728Z,94436.95
2018-06-05T00:32:04.359Z,94433.15
2018-06-05T00:34:30.738Z,94429.41
2018-06-05T00:36:57.083Z,94434.25
2018-06-05T00:39:23.459Z,94424.56
2018-06-05T00:41:49.842Z,94423.68
2018-06-05T00:44:16.202Z,94429.84
2018-06-05T00:46:42.553Z,94419.59
2018-06-05T00:49:08.883Z,94430.92
2018-06-05T00:51:35.263Z,94428.44
2018-06-05T00:54:01.584Z,94432.50
2018-06-05T00:56:27.971Z,94432.50
2018-06-05T00:58:54.308Z,94431.42
2018-06-05T01:01:20.751Z,94434.23
2018-06-05T01:03:47.327Z,94439.33
2018-06-05T01:06:13.706Z,94444.91
2018-06-05T01:08:40.454Z,94441.89
2018-06-05T01:11:06.908Z,94439.61
2018-06-05T01:13:33.281Z,94440.17
2018-06-05T01:15:59.659Z,94445.86
2018-06-05T01:18:26.488Z,94444.32
2018-06-05T01:20:52.927Z,94436.81
2018-06-05T01:23:19.372Z,94446.86
2018-06-05T01:25:45.733Z,94435.38
2018-06-05T01:28:12.122Z,94440.94
2018-06-05T01:30:38.445Z,94441.74
2018-06-05T01:33:04.887Z,94432.23
2018-06-05T01:35:31.271Z,94437.68
2018-06-05T01:37:57.772Z,94436.03
2018-06-05T01:40:24.156Z,94438.23
2018-06-05T01:42:50.524Z,94438.48
2018-06-05T01:45:16.896Z,94429.74
2018-06-05T01:47:43.366Z,94431.43
2018-06-05T01:50:09.866Z,94429.80
2018-06-05T01:52:36.649Z,94428.44
2018-06-05T01:55:03.025Z,94423.91
2018-06-05T01:57:29.602Z,94427.38
2018-06-05T01:59:56.059Z,94422.75
2018-06-05T02:02:22.434Z,94427.84
2018-06-05T02:04:48.996Z,94436.87
2018-06-05T02:07:15.876Z,94432.94
2018-06-05T02:09:42.504Z,94439.73
2018-06-05T02:12:08.846Z,94439.79
2018-06-05T02:14:35.313Z,94438.44
2018-06-05T02:17:01.940Z,94428.25
2018-06-05T02:19:28.329Z,94427.45
2018-06-05T02:21:54.881Z,94424.86
2018-06-05T02:24:21.215Z,94425.20
2018-06-05T02:26:47.577Z,94426.36
2018-06-05T02:29:14.083Z,94419.97
2018-06-05T02:31:40.621Z,94422.70
2018-06-05T02:34:07.099Z,94432.59
2018-06-05T02:36:33.452Z,94429.41
2018-06-05T02:38:59.967Z,94432.39
2018-06-05T02:41:26.288Z,94433.90
2018-06-05T02:43:52.627Z,94434.99
2018-06-05T02:46:18.941Z,94429.29
2018-06-05T02:48:45.528Z,94428.06
2018-06-05T02:51:11.856Z,94426.63
2018-06-05T02:53:38.398Z,94436.75
2018-06-05T02:56:05.001Z,94432.14
2018-06-05T02:58:31.529Z,94436.20
2018-06-05T03:00:57.908Z,94437.02
2018-06-05T03:03:24.301Z,94440.19
2018-06-05T03:05:50.901Z,94437.77
2018-06-05T03:08:17.262Z,94442.86
2018-06-05T03:10:43.599Z,94432.41
2018-06-05T03:13:09.977Z,94455.25
2018-06-05T03:15:36.470Z,94454.44
2018-06-05T03:18:02.892Z,94457.09
2018-06-05T03:20:29.239Z,94465.52
2018-06-05T03:22:55.627Z,94465.92
2018-06-05T03:25:22.031Z,94461.30
2018-06-05T03:27:48.403Z,94466.70
2018-06-05T03:30:14.843Z,94467.33
2018-06-05T03:32:41.228Z,94457.48
2018-06-05T03:35:07.573Z,94463.34
2018-06-05T03:37:34.019Z,94459.05
2018-06-05T03:40:00.638Z,94464.27
2018-06-05T03:42:27.000Z,94457.45
2018-06-05T03:44:53.360Z,94464.64
2018-06-05T03:47:19.802Z,94456.14
2018-06-05T03:49:46.168Z,94464.91
2018-06-05T03:52:12.499Z,94463.94
2018-06-05T03:54:38.925Z,94460.61
2018-06-05T03:57:05.600Z,94465.60
2018-06-05T03:59:32.002Z,94462.59
2018-06-05T04:01:58.344Z,94464.48
2018-06-05T04:04:24.816Z,94458.42
2018-06-05T04:06:51.335Z,94457.61
2018-06-05T04:09:17.798Z,94464.88
2018-06-05T04:11:44.225Z,94458.91
2018-06-05T04:14:10.648Z,94458.81
2018-06-05T04:16:37.031Z,94467.53
2018-06-05T04:19:03.564Z,94466.55
2018-06-05T04:21:30.060Z,94467.37
2018-06-05T04:23:56.422Z,94470.84
2018-06-05T04:26:23.085Z,94472.60
2018-06-05T04:28:49.847Z,94467.91
2018-06-05T04:31:16.550Z,94468.19
2018-06-05T04:33:42.984Z,94475.91
2018-06-05T04:36:09.517Z,94480.79
2018-06-05T04:38:35.855Z,94475.91
2018-06-05T04:41:02.527Z,94485.27
2018-06-05T04:43:28.941Z,94484.39
2018-06-05T04:45:55.603Z,94477.94
2018-06-05T04:48:22.015Z,94491.72
2018-06-05T04:50:48.405Z,94493.27
2018-06-05T04:53:14.924Z,94492.60
2018-06-05T04:55:41.606Z,94496.67
2018-06-05T04:58:07.981Z,94499.91
2018-06-05T05:00:34.488Z,94503.59
2018-06-05T05:03:00.876Z,94501.89
2018-06-05T05:05:27.374Z,94503.72
2018-06-05T05:07:53.759Z,94506.63
2018-06-05T05:10:20.181Z,94505.05
2018-06-05T05:12:46.567Z,94503.22
2018-06-05T05:15:12.988Z,94503.28
2018-06-05T05:17:39.327Z,94496.89
2018-06-05T05:20:05.771Z,94501.73
2018-06-05T05:22:32.163Z,94500.23
2018-06-05T05:24:58.579Z,94505.87
2018-06-05T05:27:24.972Z,94507.28
2018-06-05T05:29:51.575Z,94502.88
2018-06-05T05:32:18.049Z,94506.94
2018-06-05T05:34:46.112Z,94507.17
2018-06-05T05:37:12.662Z,94506.77
2018-06-05T05:39:39.116Z,94506.77
2018-06-05T05:42:05.556Z,94513.55
2018-06-05T05:44:31.960Z,94521.13
2018-06-05T05:46:58.346Z,94520.05
2018-06-05T05:49:24.728Z,94513.98
2018-06-05T05:51:51.227Z,94518.48
2018-06-05T05:54:17.675Z,94508.86
2018-06-05T05:56:44.253Z,94512.42
2018-06-05T05:59:10.595Z,94509.14
2018-06-05T06:01:36.916Z,94503.12
2018-06-05T06:04:03.253Z,94509.76
2018-06-05T06:06:29.662Z,94504.34
2018-06-05T06:08:56.090Z,94513.40
2018-06-05T06:11:22.518Z,94511.80
2018-06-05T06:13:48.902Z,94510.59
2018-06-05T06:16:15.268Z,94514.05
2018-06-05T06:18:42.067Z,94507.78
2018-06-05T06:21:08.495Z,94509.14
2018-06-05T06:23:35.062Z,94512.86
2018-06-05T06:26:01.513Z,94511.86
2018-06-05T06:28:27.885Z,94513.26
2018-06-05T06:30:54.257Z,94511.78
2018-06-05T06:33:20.784Z,94502.67
2018-06-05T06:35:47.241Z,94502.38
2018-06-05T06:38:13.641Z,94497.20
2018-06-05T06:40:40.075Z,94497.15
2018-06-05T06:43:06.519Z,94500.44
2018-06-05T06:45:33.123Z,94486.62
2018-06-05T06:47:59.716Z,94492.69
2018-06-05T06:50:26.209Z,94495.06
2018-06-05T06:52:52.968Z,94498.67
2018-06-05T06:55:19.351Z,94489.91
2018-06-05T06:57:45.804Z,94483.72
2018-06-05T07:00:12.321Z,94487.93
2018-06-05T07:02:38.974Z,94488.70
2018-06-05T07:05:05.448Z,94484.72
2018-06-05T07:07:31.863Z,94479.17
2018-06-05T07:09:58.359Z,94478.36
2018-06-05T07:12:24.873Z,94477.55
2018-06-05T07:14:51.576Z,94474.84
2018-06-05T07:17:18.060Z,94468.14
2018-06-05T07:19:44.810Z,94471.36
2018-06-05T07:22:11.694Z,94471.75
2018-06-05T07:24:38.179Z,94473.92
2018-06-05T07:27:04.809Z,94465.95
2018-06-05T07:29:31.348Z,94469.83
2018-06-05T07:31:57.996Z,94465.19
2018-06-05T07:34:24.602Z,94470.27
2018-06-05T07:36:51.332Z,94472.45
2018-06-05T07:39:18.185Z,94466.95
2018-06-05T07:41:44.865Z,94462.84
2018-06-05T07:44:11.713Z,94461.04
2018-06-05T07:46:38.426Z,94458.55
2018-06-05T07:49:05.000Z,94463.59
2018-06-05T07:51:31.792Z,94465.03
2018-06-05T07:53:58.302Z,94457.50
2018-06-05T07:56:24.798Z,94462.67
2018-06-05T07:58:51.301Z,94461.70
2018-06-05T08:01:18.059Z,94447.42
2018-06-05T08:03:44.656Z,94437.07
2018-06-05T08:06:11.139Z,94441.30
2018-06-05T08:08:37.557Z,94448.30
2018-06-05T08:11:04.098Z,94454.58
2018-06-05T08:13:30.966Z,94435.43
2018-06-05T08:15:57.473Z,94453.14
2018-06-05T08:18:25.312Z,94457.00
2018-06-05T08:20:51.955Z,94437.91
2018-06-05T08:23:18.427Z,94450.77
2018-06-05T08:25:44.897Z,94439.76
2018-06-05T08:28:11.687Z,94449.84
2018-06-05T08:30:38.747Z,94449.40
2018-06-05T08:33:05.301Z,94454.09
2018-06-05T08:35:31.887Z,94453.21
2018-06-05T08:37:58.457Z,94453.38
2018-06-05T08:40:25.119Z,94445.09
2018-06-05T08:42:51.909Z,94436.81
2018-06-05T08:45:18.827Z,94450.86
2018-06-05T08:47:45.704Z,94436.97
2018-06-05T08:50:12.407Z,94440.14
2018-06-05T08:52:38.987Z,94440.23
2018-06-05T08:55:06.312Z,94431.08
2018-06-05T08:57:33.373Z,94428.08
2018-06-05T09:00:00.610Z,94428.55
2018-06-05T09:02:27.057Z,94439.38
2018-06-05T09:04:53.729Z,94434.61
2018-06-05T09:07:20.193Z,94433.86
2018-06-05T09:09:46.773Z,94432.67
2018-06-05T09:12:13.552Z,94429.16
2018-06-05T09:14:40.012Z,94419.65
2018-06-05T09:17:06.691Z,94422.25
2018-06-05T09:19:40.893Z,94412.19
2018-06-05T09:22:07.537Z,94415.02
2018-06-05T09:24:34.428Z,94418.33
2018-06-05T09:27:01.328Z,94420.34
2018-06-05T09:29:27.885Z,94424.84
2018-06-05T09:31:54.305Z,94422.17
2018-06-05T09:34:21.199Z,94419.78
2018-06-05T09:36:47.786Z,94416.48
2018-06-05T09:39:14.295Z,94400.66
2018-06-05T09:41:40.913Z,94410.43
2018-06-05T09:44:07.605Z,94402.70
2018-06-05T09:46:34.387Z,94404.91
2018-06-05T09:49:01.123Z,94400.42
2018-06-05T09:51:27.801Z,94398.24
2018-06-05T09:53:54.281Z,94399.37
2018-06-05T09:56:20.839Z,94397.19
2018-06-05T09:58:47.632Z,94394.56
2018-06-05T10:01:14.217Z,94400.28
2018-06-05T10:03:40.959Z,94387.69
2018-06-05T10:06:07.754Z,94392.31
2018-06-05T10:08:34.499Z,94379.03
2018-06-05T10:11:01.027Z,94375.70
2018-06-05T10:13:27.668Z,94381.21
2018-06-05T10:15:54.422Z,94371.23
2018-06-05T10:18:21.119Z,94371.03
2018-06-05T10:20:47.665Z,94380.97
2018-06-05T10:23:14.177Z,94368.95
2018-06-05T10:25:40.729Z,94368.48
2018-06-05T10:28:07.465Z,94360.67
2018-06-05T10:30:34.103Z,94367.69
2018-06-05T10:33:01.918Z,94368.37
2018-06-05T10:35:28.729Z,94367.08
2018-06-05T10:37:55.387Z,94368.85
2018-06-05T10:40:24.321Z,94369.77
2018-06-05T10:42:51.006Z,94368.37
2018-06-05T10:45:17.731Z,94373.25
2018-06-05T10:47:44.506Z,94360.41
2018-06-05T10:50:11.981Z,94358.16
2018-06-05T10:52:39.688Z,94364.45
2018-06-05T10:55:06.166Z,94355.16
2018-06-05T10:57:32.801Z,94361.11
2018-06-05T10:59:59.281Z,94366.91
2018-06-05T11:02:25.858Z,94355.83
2018-06-05T11:04:52.413Z,94350.83
2018-06-05T11:07:19.139Z,94338.36
2018-06-05T11:09:45.789Z,94333.80
2018-06-05T11:12:12.634Z,94338.59
2018-06-05T11:14:39.379Z,94328.17
2018-06-05T11:17:06.338Z,94335.41
2018-06-05T11:19:33.471Z,94338.91
2018-06-05T11:22:00.097Z,94329.98
2018-06-05T11:24:26.888Z,94323.16
2018-06-05T11:26:53.993Z,94327.85
2018-06-05T11:29:20.663Z,94324.06
2018-06-05T11:31:47.373Z,94321.05
2018-06-05T11:34:13.861Z,94325.48
2018-06-05T11:36:40.520Z,94314.77
2018-06-05T11:39:07.108Z,94321.98
2018-06-05T11:41:33.569Z,94325.70
2018-06-05T11:44:00.155Z,94315.89
2018-06-05T11:46:26.850Z,94313.27
2018-06-05T11:48:53.414Z,94306.28
2018-06-05T11:51:20.046Z,94304.08
2018-06-05T11:53:47.061Z,94305.83
2018-06-05T11:56:14.051Z,94297.56
2018-06-05T11:58:40.841Z,94301.78
2018-06-05T12:01:07.745Z,94291.73
2018-06-05T12:03:34.348Z,94295.12
2018-06-05T12:06:01.195Z,94291.88
2018-06-05T12:08:27.854Z,94290.03
2018-06-05T12:10:54.729Z,94289.03
2018-06-05T12:13:21.454Z,94290.40
2018-06-05T12:15:48.337Z,94294.09
2018-06-05T12:18:15.023Z,94294.06
2018-06-05T12:20:41.753Z,94288.33
2018-06-05T12:23:08.620Z,94300.94
2018-06-05T12:25:35.405Z,94297.45
2018-06-05T12:28:03.066Z,94290.80
2018-06-05T12:30:29.635Z,94275.73
2018-06-05T12:32:56.351Z,94275.98
2018-06-05T12:35:23.178Z,94297.63
2018-06-05T12:37:50.639Z,94293.81
2018-06-05T12:40:17.338Z,94279.53
2018-06-05T12:42:44.118Z,94284.55
2018-06-05T12:45:11.088Z,94281.50
2018-06-05T12:47:37.968Z,94294.86
2018-06-05T12:52:45.664Z,94296.03
2018-06-05T12:55:12.832Z,94293.66
2018-06-05T12:57:39.775Z,94288.45
2018-06-05T13:00:06.706Z,94284.91
2018-06-05T13:02:33.638Z,94289.27
2018-06-05T13:05:00.564Z,94287.52
2018-06-05T13:07:27.236Z,94298.26
2018-06-05T13:09:54.001Z,94287.16
2018-06-05T13:12:20.894Z,94289.91
2018-06-05T13:14:48.040Z,94284.57
2018-06-05T13:17:14.759Z,94276.73
2018-06-05T13:19:41.433Z,94276.47
2018-06-05T13:22:08.037Z,94276.16
2018-06-05T13:24:34.589Z,94271.91
2018-06-05T13:27:01.197Z,94273.38
2018-06-05T13:29:28.374Z,94264.88
2018-06-05T13:31:54.981Z,94277.36
2018-06-05T13:34:21.791Z,94283.97
2018-06-05T13:36:48.649Z,94290.92
2018-06-05T13:39:16.041Z,94293.75
2018-06-05T13:41:48.704Z,94282.58
2018-06-05T13:44:15.353Z,94281.70
2018-06-05T13:46:41.903Z,94285.84
2018-06-05T13:49:08.422Z,94283.38
2018-06-05T13:51:35.299Z,94279.73
2018-06-05T13:54:02.070Z,94271.03
2018-06-05T13:56:28.889Z,94273.30
2018-06-05T13:58:55.521Z,94290.77
2018-06-05T14:01:22.233Z,94289.50
2018-06-05T14:03:48.763Z,94282.08
2018-06-05T14:08:48.505Z,94290.08
2018-06-05T14:11:14.984Z,94283.59
2018-06-05T14:13:41.551Z,94288.69
2018-06-05T14:16:08.002Z,94285.30
2018-06-05T14:18:34.403Z,94278.89
2018-06-05T14:21:00.782Z,94275.48
2018-06-05T14:23:27.203Z,94282.20
2018-06-05T14:25:53.564Z,94281.64
2018-06-05T14:28:20.159Z,94279.87
2018-06-05T14:30:46.595Z,94287.30
2018-06-05T14:33:13.024Z,94278.25
2018-06-05T14:35:39.441Z,94283.25
2018-06-05T14:38:05.877Z,94270.45
2018-06-05T14:40:32.248Z,94286.34
2018-06-05T14:42:58.653Z,94288.33
2018-06-05T14:45:25.175Z,94286.39
2018-06-05T14:47:52.033Z,94274.39
2018-06-05T14:50:18.718Z,94294.90
2018-06-05T14:52:45.418Z,94278.69
2018-06-05T14:55:11.993Z,94296.48
2018-06-05T14:57:39.766Z,94294.28
2018-06-05T15:00:06.217Z,94298.41
2018-06-05T15:02:32.698Z,94294.70
2018-06-05T15:04:59.094Z,94320.03
2018-06-05T15:07:25.563Z,94312.64
2018-06-05T15:09:52.050Z,94308.80
2018-06-05T15:12:18.622Z,94312.92
2018-06-05T15:14:45.006Z,94320.52
2018-06-05T15:17:11.488Z,94305.06
2018-06-05T15:19:37.958Z,94310.70
2018-06-05T15:22:04.416Z,94305.33
2018-06-05T15:24:30.759Z,94314.96
2018-06-05T15:26:57.125Z,94304.20
2018-06-05T15:29:23.610Z,94321.33
2018-06-05T15:31:49.972Z,94317.04
2018-06-05T15:34:16.382Z,94322.80
2018-06-05T15:36:42.731Z,94325.45
2018-06-05T15:39:09.107Z,94327.63
2018-06-05T15:41:35.569Z,94317.41
2018-06-05T15:44:01.945Z,94326.09
2018-06-05T15:46:28.356Z,94315.88
2018-06-05T15:48:54.774Z,94311.49
2018-06-05T15:51:21.158Z,94322.66
2018-06-05T15:53:47.596Z,94319.25
2018-06-05T15:56:13.976Z,94318.58
2018-06-05T15:58:40.311Z,94324.42
2018-06-05T16:01:06.681Z,94320.28
2018-06-05T16:03:33.022Z,94317.75
2018-06-05T16:05:59.404Z,94325.55
2018-06-05T16:08:25.737Z,94320.44
2018-06-05T16:10:52.140Z,94322.42
2018-06-05T16:13:18.475Z,94322.66
2018-06-05T16:15:44.949Z,94323.41
2018-06-05T16:18:11.287Z,94325.82
2018-06-05T16:20:37.668Z,94328.30
2018-06-05T16:23:04.057Z,94336.64
2018-06-05T16:25:30.433Z,94339.94
2018-06-05T16:27:56.789Z,94339.06
2018-06-05T16:30:23.125Z,94345.25
2018-06-05T16:32:49.510Z,94343.34
2018-06-05T16:35:15.853Z,94342.62
2018-06-05T16:37:42.214Z,94340.75
2018-06-05T16:40:08.545Z,94338.98
2018-06-05T16:42:34.938Z,94340.58
2018-06-05T16:45:01.338Z,94345.45
2018-06-05T16:47:27.704Z,94347.28
2018-06-05T16:49:54.027Z,94352.97
2018-06-05T16:52:20.391Z,94348.88
2018-06-05T16:54:46.765Z,94350.53
2018-06-05T16:57:13.185Z,94345.03
2018-06-05T16:59:39.662Z,94354.07
2018-06-05T17:02:06.089Z,94363.29
2018-06-05T17:04:32.580Z,94369.77
2018-06-05T17:06:58.852Z,94347.98
2018-06-05T17:09:25.181Z,94363.45
2018-06-05T17:11:51.630Z,94368.02
2018-06-05T17:14:18.037Z,94370.20
2018-06-05T17:16:44.541Z,94373.44
2018-06-05T17:19:10.969Z,94373.41
2018-06-05T17:21:37.347Z,94378.79
2018-06-05T17:24:03.710Z,94378.80
2018-06-05T17:26:30.044Z,94379.06
2018-06-05T17:28:56.432Z,94389.22
2018-06-05T17:31:22.844Z,94390.61
2018-06-05T17:33:49.161Z,94382.58
2018-06-05T17:36:15.486Z,94389.08
2018-06-05T17:38:41.849Z,94385.68
2018-06-05T17:41:08.207Z,94396.20
2018-06-05T17:43:34.587Z,94402.19
2018-06-05T17:46:00.962Z,94410.03
2018-06-05T17:48:27.333Z,94416.22
2018-06-05T17:50:53.713Z,94415.78
2018-06-05T17:53:20.128Z,94411.05
2018-06-05T17:55:46.526Z,94422.02
2018-06-05T17:58:12.849Z,94421.39
2018-06-05T18:21:46.845Z,94464.45
2018-06-05T18:24:23.554Z,94472.38
2018-06-05T18:26:49.874Z,94463.16
2018-06-05T18:29:16.209Z,94467.72
2018-06-05T18:31:42.540Z,94483.83
2018-06-05T18:34:08.869Z,94477.19
2018-06-05T18:36:35.225Z,94484.30
2018-06-05T18:39:01.593Z,94486.42
2018-06-05T18:41:27.962Z,94491.66
2018-06-05T18:43:54.279Z,94499.53
2018-06-05T18:46:20.657Z,94502.77
2018-06-05T18:48:46.992Z,94505.66
2018-06-05T18:51:13.340Z,94505.42
2018-06-05T18:53:39.770Z,94510.84
2018-06-05T18:56:06.095Z,94514.48
2018-06-05T18:58:32.435Z,94520.20
2018-06-05T19:00:58.804Z,94513.90
2018-06-05T19:03:25.129Z,94514.95
2018-06-05T19:05:51.457Z,94512.84
2018-06-05T19:08:17.858Z,94514.78
2018-06-05T19:10:44.216Z,94512.33
2018-06-05T19:13:10.655Z,94523.67
2018-06-05T19:15:37.013Z,94518.66
2018-06-05T19:18:03.385Z,94515.97
2018-06-05T19:20:29.779Z,94509.73
2018-06-05T19:22:56.115Z,94496.70
2018-06-05T19:25:22.510Z,94501.50
2018-06-05T19:27:48.835Z,94519.13
2018-06-05T19:30:15.162Z,94520.72
2018-06-05T19:32:41.499Z,94528.80
2018-06-05T19:35:07.819Z,94526.03
2018-06-05T19:37:34.131Z,94522.73
2018-06-05T19:40:00.640Z,94524.92
2018-06-05T19:42:27.071Z,94518.62
2018-06-05T19:44:53.459Z,94514.82
2018-06-05T19:47:19.782Z,94526.45
2018-06-05T19:49:46.117Z,94533.34
2018-06-05T19:52:12.492Z,94518.16
2018-06-05T19:54:38.829Z,94527.10
2018-06-05T19:57:05.157Z,94519.36
2018-06-05T19:59:31.484Z,94521.23
2018-06-05T20:01:57.924Z,94533.94
2018-06-05T20:04:24.329Z,94532.87
2018-06-05T20:06:50.656Z,94548.57
2018-06-05T20:09:16.984Z,94548.45
2018-06-05T20:11:43.303Z,94557.58
2018-06-05T20:14:09.671Z,94563.73
2018-06-05T20:16:36.038Z,94559.80
2018-06-05T20:19:02.351Z,94565.92
2018-06-05T20:21:28.865Z,94564.68
2018-06-05T20:23:55.193Z,94556.05
2018-06-05T20:26:21.641Z,94566.20
2018-06-05T20:28:47.989Z,94564.58
2018-06-05T20:31:14.329Z,94561.88
2018-06-05T20:33:40.662Z,94571.62
2018-06-05T20:36:07.149Z,94577.92
2018-06-05T20:38:33.475Z,94585.02
2018-06-05T20:40:59.915Z,94574.15
2018-06-05T20:43:26.447Z,94575.09
2018-06-05T20:45:52.901Z,94561.52
2018-06-05T20:48:19.350Z,94569.78
2018-06-05T20:50:45.702Z,94580.63
2018-06-05T20:53:12.108Z,94581.13
2018-06-05T20:55:38.493Z,94584.03
2018-06-05T20:58:04.836Z,94584.73
2018-06-05T21:00:31.172Z,94587.79
2018-06-05T21:02:57.487Z,94595.07
2018-06-05T21:05:24.035Z,94593.12
2018-06-05T21:07:50.469Z,94601.06
2018-06-05T21:10:16.819Z,94603.88
2018-06-05T21:12:43.229Z,94603.53
2018-06-05T21:15:09.544Z,94593.89
2018-06-05T21:17:35.865Z,94598.46
2018-06-05T21:20:02.264Z,94608.23
2018-06-05T21:22:28.669Z,94603.81
2018-06-05T21:24:55.022Z,94604.05
2018-06-05T21:27:21.369Z,94604.58
2018-06-05T21:29:47.708Z,94607.23
2018-06-05T21:32:14.060Z,94599.95
2018-06-05T21:34:40.433Z,94596.77
2018-06-05T21:37:06.895Z,94594.91
2018-06-05T21:39:33.214Z,94596.29
2018-06-05T21:41:59.567Z,94590.63
2018-06-05T21:44:25.945Z,94595.06
2018-06-05T21:46:53.492Z,94598.88
2018-06-05T21:49:19.931Z,94596.83
2018-06-05T21:51:46.319Z,94582.06
2018-06-05T21:54:12.679Z,94595.01
2018-06-05T21:56:39.013Z,94596.37
2018-06-05T21:59:05.399Z,94593.75
2018-06-05T22:01:31.787Z,94596.59
2018-06-05T22:03:58.103Z,94603.52
2018-06-05T22:06:24.481Z,94612.16
2018-06-05T22:08:50.919Z,94616.61
2018-06-05T22:11:17.375Z,94615.50
2018-06-05T22:13:43.697Z,94621.20
2018-06-05T22:16:10.023Z,94621.91
2018-06-05T22:18:36.371Z,94615.79
2018-06-05T22:21:02.780Z,94622.59
2018-06-05T22:23:29.174Z,94617.05
2018-06-05T22:25:55.556Z,94620.98
2018-06-05T22:28:22.057Z,94613.71
2018-06-05T22:30:48.430Z,94611.47
2018-06-05T22:33:14.844Z,94613.68
2018-06-05T22:35:41.186Z,94613.96
2018-06-05T22:38:07.564Z,94609.42
2018-06-05T22:40:34.040Z,94610.05
2018-06-05T22:43:00.372Z,94612.95
2018-06-05T22:45:26.704Z,94609.36
2018-06-05T22:47:53.134Z,94609.05
2018-06-05T22:50:19.512Z,94616.23
2018-06-05T22:52:45.826Z,94609.45
2018-06-05T22:55:12.194Z,94613.80
2018-06-05T22:57:38.570Z,94611.69
2018-06-05T23:00:04.900Z,94613.86
2018-06-05T23:02:31.232Z,94619.19
2018-06-05T23:04:57.550Z,94621.62
2018-06-05T23:07:23.920Z,94616.07
2018-06-05T23:09:50.227Z,94602.77
2018-06-05T23:12:16.630Z,94617.14
2018-06-05T23:14:42.973Z,94618.30
2018-06-05T23:17:09.345Z,94620.23
2018-06-05T23:19:35.826Z,94610.39
2018-06-05T23:22:02.247Z,94620.28
2018-06-05T23:24:28.586Z,94615.05
2018-06-05T23:26:55.076Z,94614.71
2018-06-05T23:29:21.514Z,94611.74
2018-06-05T23:31:47.879Z,94618.17
2018-06-05T23:34:14.223Z,94615.75
2018-06-05T23:36:40.632Z,94612.87
2018-06-05T23:39:06.963Z,94609.22
2018-06-05T23:41:33.288Z,94596.99
2018-06-05T23:43:59.631Z,94613.16
2018-06-05T23:46:26.014Z,94605.09
2018-06-05T23:48:52.537Z,94608.97
2018-06-05T23:51:18.973Z,94610.38
2018-06-05T23:53:45.444Z,94610.73
2018-06-05T23:56:11.779Z,94610.92
2018-06-05T23:58:38.120Z,94592.86
